Latest Weather Observations for Hunters Hill

IDV60801

Issued at 6:32 am EST Thursday 29 June 2017 (issued every 30 minutes, with the page automatically refreshed every 10 minutes)

About weather observations | Map of weather stations | Latest weather observations for VIC | Other Formats
Station Details ID: 082139 Name: HUNTERS HILL Lat: -36.21 Lon: 147.54 Height: 981.0 m
Data from the previous 72 hours. | See also: Recent months at Hunters Hill
Date/Time
EST
Temp
°C
App
Temp
°C
Dew
Point
°C
Rel
Hum
%
Delta-T
°C
Wind Press
QNH
hPa
Press
MSL
hPa
Rain since
9am
mm
Dir  Spd
km/h
Gust
km/h
Spd
kts
Gust
kts
29/06:30am 1.7 -0.4 1.6 99 0.0 SW 2 4 1 2 - - 0.0
29/06:00am 2.0 -0.4 1.9 99 0.0 SW 4 4 2 2 - - 0.0
29/05:30am 2.4 0.0 2.3 99 0.0 SW 4 7 2 4 - - 0.0
29/05:00am 2.1 -0.3 2.0 99 0.0 SW 4 9 2 5 - - 0.0
29/04:30am 1.7 -0.8 1.6 99 0.0 SW 4 6 2 3 - - 0.0
29/04:00am 1.5 -0.6 1.4 99 0.0 SW 2 4 1 2 - - 0.0
29/03:30am 2.2 -0.2 2.1 99 0.0 SW 4 6 2 3 - - 0.0
29/03:00am 2.4 0.4 2.3 99 0.0 SW 2 2 1 1 - - 0.0
29/02:30am 2.1 0.0 2.0 99 0.0 SW 2 4 1 2 - - 0.0
29/02:00am 2.5 0.5 2.4 99 0.0 SW 2 4 1 2 - - 0.0
29/01:30am 2.6 1.0 2.3 98 0.1 CALM 0 0 0 0 - - 0.0
29/01:00am 3.0 0.9 1.8 92 0.5 SW 2 7 1 4 - - 0.0
29/12:30am 3.1 0.7 1.9 92 0.5 SW 4 6 2 3 - - 0.0
29/12:00am 3.1 0.7 2.2 94 0.4 SW 4 6 2 3 - - 0.0
 
Date/Time
EST
Temp
°C
App
Temp
°C
Dew
Point
°C
Rel
Hum
%
Delta-T
°C
Wind Press
QNH
hPa
Press
MSL
hPa
Rain since
9am
mm
Dir  Spd
km/h
Gust
km/h
Spd
kts
Gust
kts
28/11:30pm 2.9 1.3 2.3 96 0.3 CALM 0 6 0 3 - - 0.0
28/11:00pm 2.5 0.8 1.6 94 0.4 CALM 0 2 0 1 - - 0.0
28/10:30pm 3.0 0.9 1.7 91 0.5 SW 2 6 1 3 - - 0.0
28/10:00pm 2.6 0.0 1.1 90 0.6 SW 4 9 2 5 - - 0.0
28/09:30pm 2.6 0.1 1.3 91 0.5 SW 4 7 2 4 - - 0.0
28/09:00pm 2.3 0.5 1.1 92 0.5 CALM 0 0 0 0 - - 0.0
28/08:30pm 2.5 0.7 1.0 90 0.6 CALM 0 0 0 0 - - 0.0
28/08:00pm 2.3 0.4 0.5 88 0.7 CALM 0 2 0 1 - - 0.0
28/07:30pm 2.8 0.9 0.7 86 0.8 CALM 0 0 0 0 - - 0.0
28/07:00pm 2.9 1.0 0.6 85 0.9 CALM 0 0 0 0 - - 0.0
28/06:30pm 3.4 1.5 0.8 83 1.1 CALM 0 4 0 2 - - 0.0
28/06:00pm 4.0 1.9 1.4 83 1.1 SW 2 4 1 2 - - 0.0
28/05:30pm 4.1 1.6 1.8 85 1.0 SW 4 7 2 4 - - 0.0
28/05:00pm 4.3 1.5 2.0 85 1.0 SW 6 7 3 4 - - 0.0
28/04:30pm 4.5 1.5 2.0 84 1.1 WSW 7 17 4 9 - - 0.0
28/04:00pm 5.2 2.2 1.9 79 1.4 WSW 7 15 4 8 - - 0.0
28/03:30pm 5.5 3.1 2.3 80 1.4 WSW 4 9 2 5 - - 0.0
28/03:00pm 5.5 2.8 2.8 83 1.2 WSW 6 9 3 5 - - 0.0
28/02:30pm 6.1 3.8 2.6 78 1.5 NNE 4 11 2 6 - - 0.0
28/02:00pm 7.5 4.6 1.6 66 2.6 NNE 6 13 3 7 - - 0.0
28/01:30pm 7.8 5.4 1.9 66 2.6 NNE 4 9 2 5 - - 0.0
28/01:00pm 7.5 5.6 2.6 71 2.2 NNE 2 6 1 3 - - 0.0
28/12:30pm 5.3 3.2 1.6 77 1.6 NNE 2 6 1 3 - - 0.0
28/12:00pm 5.6 2.9 2.9 83 1.2 NNE 6 9 3 5 - - 0.0
28/11:30am 4.5 2.1 2.4 86 0.9 NNE 4 7 2 4 - - 0.0
28/11:00am 4.6 3.0 2.5 86 0.9 CALM 0 0 0 0 - - 0.0
28/10:30am 4.0 2.3 2.0 87 0.8 CALM 0 0 0 0 - - 0.0
28/10:00am 3.6 1.5 1.6 87 0.8 NNE 2 4 1 2 - - 0.0
28/09:30am 3.4 1.7 2.1 91 0.5 CALM 0 0 0 0 - - 0.0
28/09:00am 3.0 1.3 1.7 91 0.5 CALM 0 0 0 0 - - 0.0
28/08:30am 2.7 0.9 1.4 91 0.5 CALM 0 0 0 0 - - 0.0
28/08:00am 2.5 0.7 1.2 91 0.5 CALM 0 0 0 0 - - 0.0
28/07:30am 2.4 0.6 0.9 90 0.6 CALM 0 0 0 0 - - 0.0
28/07:00am 2.2 0.4 1.0 92 0.5 CALM 0 0 0 0 - - 0.0
28/06:30am 2.4 0.6 0.9 90 0.6 CALM 0 0 0 0 - - 0.0
28/06:00am 2.4 0.2 0.8 89 0.6 NNE 2 4 1 2 - - 0.0
28/05:30am 2.3 0.1 0.8 90 0.6 NNE 2 2 1 1 - - 0.0
28/05:00am 2.4 0.2 0.9 90 0.6 NNE 2 2 1 1 - - 0.0
28/04:30am 2.3 0.1 1.0 91 0.5 NNE 2 4 1 2 - - 0.0
28/04:00am 2.4 -0.2 1.1 91 0.5 NNE 4 4 2 2 - - 0.0
28/03:30am 2.2 -0.3 1.3 94 0.4 NNE 4 6 2 3 - - 0.0
28/03:00am 2.3 0.2 1.4 94 0.4 NNE 2 6 1 3 - - 0.0
28/02:30am 2.2 -0.7 1.6 96 0.2 NNE 6 9 3 5 - - 0.0
28/02:00am 2.3 -0.1 2.2 99 0.0 NNE 4 7 2 4 - - 0.0
28/01:30am 2.3 -0.1 2.2 99 0.0 NNE 4 7 2 4 - - 0.0
28/01:00am 2.3 -0.1 2.2 99 0.0 NNE 4 6 2 3 - - 0.0
28/12:30am 2.5 0.5 2.4 99 0.0 NNE 2 6 1 3 - - 0.0
28/12:00am 2.7 0.0 2.6 99 0.0 NNE 6 9 3 5 - - 0.0
 
Date/Time
EST
Temp
°C
App
Temp
°C
Dew
Point
°C
Rel
Hum
%
Delta-T
°C
Wind Press
QNH
hPa
Press
MSL
hPa
Rain since
9am
mm
Dir  Spd
km/h
Gust
km/h
Spd
kts
Gust
kts
27/11:30pm 2.5 0.1 2.4 99 0.0 NNE 4 7 2 4 - - 0.0
27/11:00pm 2.3 0.3 2.3 100 0.0 NNE 2 4 1 2 - - 0.0
27/10:30pm 2.2 0.2 2.2 100 0.0 NNE 2 4 1 2 - - 0.0
27/10:00pm 1.9 -0.6 1.8 99 0.0 NNE 4 6 2 3 - - 0.0
27/09:30pm 1.9 -0.6 1.8 99 0.0 NNE 4 6 2 3 - - 0.0
27/09:00pm 1.7 0.0 1.6 99 0.0 CALM 0 4 0 2 - - 0.0
27/08:30pm 2.1 0.0 2.0 99 0.0 NNE 2 4 1 2 - - 0.0
27/08:00pm 2.4 0.4 2.3 99 0.0 NNE 2 4 1 2 - - 0.0
27/07:30pm 2.3 0.3 2.2 99 0.0 NNE 2 4 1 2 - - 0.0
27/07:00pm 2.7 0.7 2.4 98 0.1 NNE 2 4 1 2 - - 0.0
27/06:30pm 2.8 1.2 2.4 97 0.2 CALM 0 0 0 0 - - 0.0
27/06:00pm 2.8 1.2 2.7 99 0.0 CALM 0 0 0 0 - - 0.0
27/05:30pm 2.8 1.2 2.5 98 0.1 CALM 0 0 0 0 - - 0.0
27/05:00pm 3.1 1.6 3.0 99 0.0 CALM 0 0 0 0 - - 0.0
27/04:30pm 3.4 1.5 3.1 98 0.1 NNE 2 6 1 3 - - 0.0
27/04:00pm 3.8 1.6 3.1 95 0.3 NNE 4 7 2 4 - - 0.0
27/03:30pm 4.0 1.7 3.0 93 0.4 NNE 4 7 2 4 - - 0.0
27/03:00pm 4.3 1.6 2.5 88 0.8 NNE 6 11 3 6 - - 0.0
27/02:30pm 4.7 2.4 3.0 89 0.7 NNE 4 9 2 5 - - 0.0
27/02:00pm 4.6 2.2 2.3 85 1.0 N 4 6 2 3 - - 0.0
27/01:30pm 4.5 2.1 2.0 84 1.1 N 4 9 2 5 - - 0.0
27/01:00pm 5.0 3.1 2.7 85 1.0 N 2 6 1 3 - - 0.0
27/12:30pm 5.0 2.3 2.4 83 1.1 N 6 11 3 6 - - 0.0
27/12:00pm 5.6 4.0 4.4 92 0.5 N 2 9 1 5 - - 0.0
27/11:30am 5.3 3.1 3.5 88 0.8 N 4 7 2 4 - - 0.0
27/11:00am 5.9 3.7 3.1 82 1.2 NNE 4 7 2 4 - - 0.0
27/10:30am 6.2 4.4 5.6 96 0.3 SW 4 6 2 3 - - 0.0
27/10:00am 4.8 3.3 4.8 100 0.0 SW 2 6 1 3 - - 0.0
27/09:30am 2.9 1.0 2.9 100 0.0 SW 2 4 1 2 - - 0.0
27/09:00am 1.9 -0.2 1.9 100 0.0 SW 2 4 1 2 - - 0.4
27/08:30am 1.4 -0.7 1.4 100 0.0 SW 2 2 1 1 - - 0.4
27/08:00am 1.0 -1.2 1.0 100 0.0 SW 2 4 1 2 - - 0.4
27/07:30am 0.6 -1.7 0.6 100 0.0 SW 2 4 1 2 - - 0.4
27/07:00am 0.9 -1.3 0.9 100 0.0 SW 2 4 1 2 - - 0.2
27/06:30am 1.1 -1.1 1.1 100 0.0 SW 2 6 1 3 - - 0.2
27/06:00am 1.1 -1.1 1.1 100 0.0 SW 2 2 1 1 - - 0.2
27/05:30am 1.5 -0.3 1.5 100 0.0 CALM 0 2 0 1 - - 0.2
27/05:00am 1.8 -0.3 1.8 100 0.0 SW 2 6 1 3 - - 0.2
27/04:30am 1.8 -0.3 1.8 100 0.0 SW 2 4 1 2 - - 0.2
27/04:00am 1.8 -0.3 1.8 100 0.0 SW 2 4 1 2 - - 0.2
27/03:30am 1.9 0.2 1.9 100 0.0 CALM 0 2 0 1 - - 0.2
27/03:00am 2.0 -0.1 2.0 100 0.0 SW 2 4 1 2 - - 0.2
27/02:30am 2.1 0.4 2.1 100 0.0 CALM 0 2 0 1 - - 0.2
27/02:00am 2.3 0.7 2.3 100 0.0 CALM 0 6 0 3 - - 0.2
27/01:30am 1.9 0.2 1.9 100 0.0 CALM 0 0 0 0 - - 0.2
27/01:00am 1.8 0.1 1.8 100 0.0 CALM 0 0 0 0 - - 0.2
27/12:30am 2.1 0.0 2.0 99 0.0 SW 2 2 1 1 - - 0.2
27/12:00am 1.7 0.0 1.6 99 0.0 CALM 0 0 0 0 - - 0.2
 
Date/Time
EST
Temp
°C
App
Temp
°C
Dew
Point
°C
Rel
Hum
%
Delta-T
°C
Wind Press
QNH
hPa
Press
MSL
hPa
Rain since
9am
mm
Dir  Spd
km/h
Gust
km/h
Spd
kts
Gust
kts
26/11:30pm 2.0 0.3 1.9 99 0.0 CALM 0 0 0 0 - - 0.2
26/11:00pm 2.4 0.3 1.7 95 0.3 SW 2 6 1 3 - - 0.2
26/10:30pm 3.1 0.6 1.6 90 0.6 SW 4 6 2 3 - - 0.2
26/10:00pm 2.9 1.1 1.4 90 0.6 CALM 0 0 0 0 - - 0.2
26/09:30pm 3.0 1.2 1.5 90 0.6 CALM 0 0 0 0 - - 0.2
26/09:00pm 2.9 1.1 1.1 88 0.7 CALM 0 0 0 0 - - 0.2
26/08:30pm 3.2 1.4 1.4 88 0.7 CALM 0 0 0 0 - - 0.2
26/08:00pm 2.7 0.9 1.5 92 0.5 CALM 0 4 0 2 - - 0.2
26/07:30pm 3.1 1.0 1.6 90 0.6 SW 2 6 1 3 - - 0.2
26/07:00pm 3.0 0.6 2.4 96 0.3 SW 4 6 2 3 - - 0.2
26/06:30pm 3.2 1.0 3.1 99 0.0 SW 4 7 2 4 - - 0.2
26/06:00pm 3.3 0.7 3.2 99 0.0 SW 6 7 3 4 - - 0.2
26/05:30pm 3.0 0.3 2.7 98 0.1 SW 6 9 3 5 - - 0.2
26/05:00pm 3.6 1.2 2.4 92 0.5 SW 4 7 2 4 - - 0.2
26/04:30pm 4.8 2.3 3.5 91 0.6 SW 6 7 3 4 - - 0.2
26/04:00pm 3.9 1.3 3.3 96 0.3 SW 6 7 3 4 - - 0.2
26/03:30pm 4.2 1.6 3.2 93 0.4 SW 6 9 3 5 - - 0.2
26/03:00pm 5.5 2.6 2.5 81 1.3 SW 7 13 4 7 - - 0.0
26/02:30pm 5.1 2.4 2.5 83 1.1 SW 6 11 3 6 - - 0.0
26/02:00pm 5.8 3.5 2.6 80 1.4 SW 4 6 2 3 - - 0.0
26/01:30pm 5.9 3.7 3.1 82 1.2 WSW 4 7 2 4 - - 0.0
26/01:00pm 6.2 4.1 4.0 86 1.0 WSW 4 7 2 4 - - 0.0
26/12:30pm 6.3 4.1 3.3 81 1.3 WSW 4 9 2 5 - - 0.0
26/12:00pm 6.3 4.7 4.3 87 0.9 W 2 6 1 3 - - 0.0
26/11:30am 6.0 4.0 4.5 90 0.7 W 4 7 2 4 - - 0.0
26/11:00am 5.0 2.9 4.1 94 0.4 WNW 4 9 2 5 - - 0.0
26/10:30am 4.5 2.5 4.2 98 0.1 WNW 4 7 2 4 - - 0.0
26/10:00am 5.0 3.5 5.0 100 0.0 WNW 2 6 1 3 - - 0.0
26/09:30am 3.9 1.8 3.9 100 0.0 WNW 4 6 2 3 - - 0.0
26/09:00am 3.0 1.1 3.0 100 0.0 WNW 2 6 1 3 - - 0.6
26/08:30am 3.5 1.3 3.5 100 0.0 WNW 4 7 2 4 - - 0.6
26/08:00am 3.1 1.2 3.1 100 0.0 WNW 2 6 1 3 - - 0.6
26/07:30am 3.2 1.4 3.2 100 0.0 WNW 2 6 1 3 - - 0.6
26/07:00am 3.3 0.5 3.3 100 0.0 W 7 15 4 8 - - 0.6

Other Formats:

Comma delimited format used in spreadsheet applications
http://www.bom.gov.au/fwo/IDV60801/IDV60801.94878.axf

JavaScript Object Notation format (JSON) in row-major order
http://www.bom.gov.au/fwo/IDV60801/IDV60801.94878.json